sensor_id;sensor_type;location;lat;lon;timestamp;pressure;altitude;pressure_sealevel;temperature;humidity
72802;BME280;61891;55.818;37.084;2023-07-29T00:00:57;98597.25;;;16.72;72.03
72802;BME280;61891;55.818;37.084;2023-07-29T00:03:23;98568.25;;;16.51;72.09
72802;BME280;61891;55.818;37.084;2023-07-29T00:05:49;98591.38;;;16.63;72.06
72802;BME280;61891;55.818;37.084;2023-07-29T00:08:14;98601.88;;;16.65;72.13
72802;BME280;61891;55.818;37.084;2023-07-29T00:10:40;98598.81;;;16.61;72.15
72802;BME280;61891;55.818;37.084;2023-07-29T00:13:07;98636.88;;;16.82;71.83
72802;BME280;61891;55.818;37.084;2023-07-29T00:15:33;98638.50;;;16.83;72.19
72802;BME280;61891;55.818;37.084;2023-07-29T00:17:59;98628.41;;;16.85;72.12
72802;BME280;61891;55.818;37.084;2023-07-29T00:20:25;98625.94;;;16.83;72.13
72802;BME280;61891;55.818;37.084;2023-07-29T00:22:50;98626.16;;;16.82;72.11
72802;BME280;61891;55.818;37.084;2023-07-29T00:25:19;98626.41;;;16.80;71.74
72802;BME280;61891;55.818;37.084;2023-07-29T00:27:46;98625.22;;;16.76;71.97
72802;BME280;61891;55.818;37.084;2023-07-29T00:30:11;98592.41;;;16.62;71.59
72802;BME280;61891;55.818;37.084;2023-07-29T00:32:37;98605.66;;;16.75;72.18
72802;BME280;61891;55.818;37.084;2023-07-29T00:35:04;98602.97;;;16.75;72.12
72802;BME280;61891;55.818;37.084;2023-07-29T00:37:30;98584.59;;;16.61;71.97
72802;BME280;61891;55.818;37.084;2023-07-29T00:39:56;98608.78;;;16.72;72.17
72802;BME280;61891;55.818;37.084;2023-07-29T00:42:24;98595.69;;;16.64;72.13
72802;BME280;61891;55.818;37.084;2023-07-29T00:44:50;98614.72;;;16.74;72.14
72802;BME280;61891;55.818;37.084;2023-07-29T00:47:16;98614.94;;;16.73;72.34
72802;BME280;61891;55.818;37.084;2023-07-29T00:49:45;98617.84;;;16.71;72.14
72802;BME280;61891;55.818;37.084;2023-07-29T00:52:11;98607.16;;;16.71;72.28
72802;BME280;61891;55.818;37.084;2023-07-29T00:54:39;98594.84;;;16.64;71.88
72802;BME280;61891;55.818;37.084;2023-07-29T00:57:07;98569.38;;;16.43;72.21
72802;BME280;61891;55.818;37.084;2023-07-29T00:59:35;98516.50;;;16.08;72.06
72802;BME280;61891;55.818;37.084;2023-07-29T01:02:01;98611.13;;;16.62;71.93
72802;BME280;61891;55.818;37.084;2023-07-29T01:04:27;98594.13;;;16.57;72.56
72802;BME280;61891;55.818;37.084;2023-07-29T01:09:55;98555.78;;;16.44;72.30
72802;BME280;61891;55.818;37.084;2023-07-29T01:15:47;98563.59;;;16.46;72.80
72802;BME280;61891;55.818;37.084;2023-07-29T01:18:29;98515.63;;;16.15;72.55
72802;BME280;61891;55.818;37.084;2023-07-29T01:21:03;98575.56;;;16.43;72.99
72802;BME280;61891;55.818;37.084;2023-07-29T01:23:30;98572.28;;;16.41;73.06
72802;BME280;61891;55.818;37.084;2023-07-29T01:25:58;98542.41;;;16.26;72.62
72802;BME280;61891;55.818;37.084;2023-07-29T01:28:24;98559.13;;;16.40;72.51
72802;BME280;61891;55.818;37.084;2023-07-29T01:30:51;98561.34;;;16.43;73.57
72802;BME280;61891;55.818;37.084;2023-07-29T01:33:25;98544.78;;;16.34;73.26
72802;BME280;61891;55.818;37.084;2023-07-29T01:36:02;98556.91;;;16.37;73.19
72802;BME280;61891;55.818;37.084;2023-07-29T01:38:40;98566.13;;;16.41;73.22
72802;BME280;61891;55.818;37.084;2023-07-29T01:41:08;98554.91;;;16.32;73.29
72802;BME280;61891;55.818;37.084;2023-07-29T01:43:36;98542.19;;;16.28;72.95
72802;BME280;61891;55.818;37.084;2023-07-29T01:46:10;98527.88;;;16.22;73.05
72802;BME280;61891;55.818;37.084;2023-07-29T01:48:37;98545.25;;;16.31;73.24
72802;BME280;61891;55.818;37.084;2023-07-29T01:51:04;98538.34;;;16.24;73.14
72802;BME280;61891;55.818;37.084;2023-07-29T01:53:31;98576.38;;;16.44;73.10
72802;BME280;61891;55.818;37.084;2023-07-29T01:55:56;98571.47;;;16.41;73.12
72802;BME280;61891;55.818;37.084;2023-07-29T01:58:23;98573.69;;;16.44;72.90
72802;BME280;61891;55.818;37.084;2023-07-29T02:00:49;98574.75;;;16.43;72.76
72802;BME280;61891;55.818;37.084;2023-07-29T02:03:15;98574.50;;;16.44;73.01
72802;BME280;61891;55.818;37.084;2023-07-29T02:05:41;98584.16;;;16.46;73.16
72802;BME280;61891;55.818;37.084;2023-07-29T02:08:10;98546.94;;;16.26;72.77
72802;BME280;61891;55.818;37.084;2023-07-29T02:10:36;98573.69;;;16.44;73.07
72802;BME280;61891;55.818;37.084;2023-07-29T02:13:03;98563.88;;;16.38;73.00
72802;BME280;61891;55.818;37.084;2023-07-29T02:15:29;98575.78;;;16.42;72.71
72802;BME280;61891;55.818;37.084;2023-07-29T02:17:55;98579.41;;;16.48;73.14
72802;BME280;61891;55.818;37.084;2023-07-29T02:20:21;98584.53;;;16.49;72.74
72802;BME280;61891;55.818;37.084;2023-07-29T02:22:48;98554.31;;;16.30;72.89
72802;BME280;61891;55.818;37.084;2023-07-29T02:25:14;98588.03;;;16.50;72.87
72802;BME280;61891;55.818;37.084;2023-07-29T02:27:40;98556.16;;;16.30;72.89
72802;BME280;61891;55.818;37.084;2023-07-29T02:30:06;98589.28;;;16.47;72.99
72802;BME280;61891;55.818;37.084;2023-07-29T02:32:35;98596.88;;;16.50;72.97
72802;BME280;61891;55.818;37.084;2023-07-29T02:35:01;98570.56;;;16.29;73.24
72802;BME280;61891;55.818;37.084;2023-07-29T02:37:31;98591.22;;;16.40;72.87
72802;BME280;61891;55.818;37.084;2023-07-29T02:39:57;98610.84;;;16.52;72.51
72802;BME280;61891;55.818;37.084;2023-07-29T02:42:23;98587.75;;;16.39;72.95
72802;BME280;61891;55.818;37.084;2023-07-29T02:44:49;98616.78;;;16.54;72.75
72802;BME280;61891;55.818;37.084;2023-07-29T02:47:15;98604.47;;;16.53;72.78
72802;BME280;61891;55.818;37.084;2023-07-29T02:49:41;98614.56;;;16.51;73.26
72802;BME280;61891;55.818;37.084;2023-07-29T02:52:07;98584.91;;;16.34;72.92
72802;BME280;61891;55.818;37.084;2023-07-29T02:54:32;98612.72;;;16.52;72.83
72802;BME280;61891;55.818;37.084;2023-07-29T02:56:58;98606.53;;;16.51;72.39
72802;BME280;61891;55.818;37.084;2023-07-29T02:59:24;98589.75;;;16.44;72.88
72802;BME280;61891;55.818;37.084;2023-07-29T03:01:50;98585.59;;;16.48;72.85
72802;BME280;61891;55.818;37.084;2023-07-29T03:04:16;98582.22;;;16.53;72.88
72802;BME280;61891;55.818;37.084;2023-07-29T03:06:42;98573.38;;;16.52;72.89
72802;BME280;61891;55.818;37.084;2023-07-29T03:09:08;98567.81;;;16.54;72.53
72802;BME280;61891;55.818;37.084;2023-07-29T03:11:34;98563.72;;;16.51;72.97
72802;BME280;61891;55.818;37.084;2023-07-29T03:14:00;98564.09;;;16.55;72.89
72802;BME280;61891;55.818;37.084;2023-07-29T03:16:28;98559.56;;;16.55;72.94
72802;BME280;61891;55.818;37.084;2023-07-29T03:18:56;98567.13;;;16.58;72.84
72802;BME280;61891;55.818;37.084;2023-07-29T03:21:23;98558.06;;;16.59;72.94
72802;BME280;61891;55.818;37.084;2023-07-29T03:23:49;98570.19;;;16.62;72.84
72802;BME280;61891;55.818;37.084;2023-07-29T03:26:15;98572.63;;;16.63;72.58
72802;BME280;61891;55.818;37.084;2023-07-29T03:28:42;98562.56;;;16.65;73.02
72802;BME280;61891;55.818;37.084;2023-07-29T03:31:08;98554.94;;;16.62;73.06
72802;BME280;61891;55.818;37.084;2023-07-29T03:33:34;98547.50;;;16.64;72.67
72802;BME280;61891;55.818;37.084;2023-07-29T03:36:00;98513.66;;;16.40;72.82
72802;BME280;61891;55.818;37.084;2023-07-29T03:38:26;98554.22;;;16.73;72.82
72802;BME280;61891;55.818;37.084;2023-07-29T03:40:53;98548.63;;;16.75;72.80
72802;BME280;61891;55.818;37.084;2023-07-29T03:43:21;98507.56;;;16.51;72.50
72802;BME280;61891;55.818;37.084;2023-07-29T03:45:47;98544.25;;;16.81;72.63
72802;BME280;61891;55.818;37.084;2023-07-29T03:48:13;98546.00;;;16.87;72.62
72802;BME280;61891;55.818;37.084;2023-07-29T03:50:39;98538.56;;;16.89;72.64
72802;BME280;61891;55.818;37.084;2023-07-29T03:53:06;98540.47;;;17.00;72.20
72802;BME280;61891;55.818;37.084;2023-07-29T03:55:32;98520.78;;;16.94;72.20
72802;BME280;61891;55.818;37.084;2023-07-29T03:58:00;98534.19;;;17.06;72.18
72802;BME280;61891;55.818;37.084;2023-07-29T04:00:27;98535.50;;;17.15;71.32
72802;BME280;61891;55.818;37.084;2023-07-29T04:02:54;98528.06;;;17.17;72.02
72802;BME280;61891;55.818;37.084;2023-07-29T04:05:20;98515.25;;;17.19;71.30
72802;BME280;61891;55.818;37.084;2023-07-29T04:07:46;98511.97;;;17.17;71.71
72802;BME280;61891;55.818;37.084;2023-07-29T04:10:12;98513.16;;;17.21;71.83
72802;BME280;61891;55.818;37.084;2023-07-29T04:12:38;98482.84;;;16.97;71.23
72802;BME280;61891;55.818;37.084;2023-07-29T04:15:04;98525.03;;;17.25;71.56
72802;BME280;61891;55.818;37.084;2023-07-29T04:17:30;98520.50;;;17.26;71.53
72802;BME280;61891;55.818;37.084;2023-07-29T04:19:56;98525.28;;;17.35;71.69
72802;BME280;61891;55.818;37.084;2023-07-29T04:22:29;98523.44;;;17.36;71.33
72802;BME280;61891;55.818;37.084;2023-07-29T04:24:58;98511.53;;;17.32;71.29
72802;BME280;61891;55.818;37.084;2023-07-29T04:27:23;98512.13;;;17.34;71.25
72802;BME280;61891;55.818;37.084;2023-07-29T04:29:49;98523.31;;;17.43;71.16
72802;BME280;61891;55.818;37.084;2023-07-29T04:32:15;98513.88;;;17.40;71.40
72802;BME280;61891;55.818;37.084;2023-07-29T04:34:43;98506.53;;;17.35;71.38
72802;BME280;61891;55.818;37.084;2023-07-29T04:37:08;98496.88;;;17.34;71.31
72802;BME280;61891;55.818;37.084;2023-07-29T04:39:34;98505.25;;;17.38;71.49
72802;BME280;61891;55.818;37.084;2023-07-29T04:42:01;98523.19;;;17.49;71.36
72802;BME280;61891;55.818;37.084;2023-07-29T04:44:27;98532.19;;;17.55;71.16
72802;BME280;61891;55.818;37.084;2023-07-29T04:46:53;98507.72;;;17.51;70.78
72802;BME280;61891;55.818;37.084;2023-07-29T04:49:19;98479.88;;;17.40;71.18
72802;BME280;61891;55.818;37.084;2023-07-29T04:51:46;98522.50;;;17.65;70.66
72802;BME280;61891;55.818;37.084;2023-07-29T04:54:12;98504.09;;;17.57;71.08
72802;BME280;61891;55.818;37.084;2023-07-29T04:56:38;98516.34;;;17.65;70.55
72802;BME280;61891;55.818;37.084;2023-07-29T04:59:03;98522.91;;;17.69;70.54
72802;BME280;61891;55.818;37.084;2023-07-29T05:01:30;98534.78;;;17.73;70.72
72802;BME280;61891;55.818;37.084;2023-07-29T05:03:56;98528.94;;;17.76;70.32
72802;BME280;61891;55.818;37.084;2023-07-29T05:06:23;98487.91;;;17.64;70.71
72802;BME280;61891;55.818;37.084;2023-07-29T05:08:49;98511.59;;;17.79;70.22
72802;BME280;61891;55.818;37.084;2023-07-29T05:11:15;98472.28;;;17.61;70.30
72802;BME280;61891;55.818;37.084;2023-07-29T05:13:41;98499.59;;;17.69;70.44
72802;BME280;61891;55.818;37.084;2023-07-29T05:16:09;98509.59;;;17.74;70.57
72802;BME280;61891;55.818;37.084;2023-07-29T05:18:35;98493.88;;;17.66;70.50
72802;BME280;61891;55.818;37.084;2023-07-29T05:21:01;98506.47;;;17.77;70.77
72802;BME280;61891;55.818;37.084;2023-07-29T05:23:27;98502.63;;;17.73;70.50
72802;BME280;61891;55.818;37.084;2023-07-29T05:25:53;98510.88;;;17.83;70.63
72802;BME280;61891;55.818;37.084;2023-07-29T05:28:18;98505.63;;;17.88;70.12
72802;BME280;61891;55.818;37.084;2023-07-29T05:30:44;98511.94;;;17.94;70.58
72802;BME280;61891;55.818;37.084;2023-07-29T05:33:10;98497.81;;;17.87;70.21
72802;BME280;61891;55.818;37.084;2023-07-29T05:35:39;98510.88;;;17.95;69.93
72802;BME280;61891;55.818;37.084;2023-07-29T05:38:06;98493.84;;;17.89;69.90
72802;BME280;61891;55.818;37.084;2023-07-29T05:40:34;98512.72;;;18.06;69.68
72802;BME280;61891;55.818;37.084;2023-07-29T05:43:01;98493.03;;;18.00;69.97
72802;BME280;61891;55.818;37.084;2023-07-29T05:45:27;98517.84;;;18.19;69.71
72802;BME280;61891;55.818;37.084;2023-07-29T05:47:52;98516.66;;;18.27;69.27
72802;BME280;61891;55.818;37.084;2023-07-29T05:50:19;98519.44;;;18.32;69.51
72802;BME280;61891;55.818;37.084;2023-07-29T05:52:46;98517.91;;;18.36;69.18
72802;BME280;61891;55.818;37.084;2023-07-29T05:55:12;98507.66;;;18.33;68.84
72802;BME280;61891;55.818;37.084;2023-07-29T05:57:38;98516.47;;;18.45;69.10
72802;BME280;61891;55.818;37.084;2023-07-29T06:00:08;98511.09;;;18.45;68.78
72802;BME280;61891;55.818;37.084;2023-07-29T06:02:39;98523.69;;;18.56;68.47
72802;BME280;61891;55.818;37.084;2023-07-29T06:05:09;98527.31;;;18.62;68.82
72802;BME280;61891;55.818;37.084;2023-07-29T06:07:35;98528.78;;;18.70;68.67
72802;BME280;61891;55.818;37.084;2023-07-29T06:10:02;98523.03;;;18.78;68.44
72802;BME280;61891;55.818;37.084;2023-07-29T06:12:30;98516.63;;;18.79;67.81
72802;BME280;61891;55.818;37.084;2023-07-29T06:14:56;98521.41;;;18.77;68.16
72802;BME280;61891;55.818;37.084;2023-07-29T06:17:22;98529.56;;;18.82;68.03
72802;BME280;61891;55.818;37.084;2023-07-29T06:19:47;98529.16;;;18.90;67.89
72802;BME280;61891;55.818;37.084;2023-07-29T06:22:13;98518.75;;;18.93;67.43
72802;BME280;61891;55.818;37.084;2023-07-29T06:24:39;98526.56;;;18.95;67.18
72802;BME280;61891;55.818;37.084;2023-07-29T06:27:05;98523.88;;;18.95;67.61
72802;BME280;61891;55.818;37.084;2023-07-29T06:29:31;98504.00;;;18.79;67.34
72802;BME280;61891;55.818;37.084;2023-07-29T06:31:58;98535.69;;;18.94;66.83
72802;BME280;61891;55.818;37.084;2023-07-29T06:34:24;98534.72;;;19.00;67.06
72802;BME280;61891;55.818;37.084;2023-07-29T06:36:50;98525.53;;;18.96;67.23
72802;BME280;61891;55.818;37.084;2023-07-29T06:39:15;98527.25;;;19.02;67.05
72802;BME280;61891;55.818;37.084;2023-07-29T06:41:41;98519.34;;;18.95;67.09
72802;BME280;61891;55.818;37.084;2023-07-29T06:44:08;98542.25;;;19.15;66.51
72802;BME280;61891;55.818;37.084;2023-07-29T06:46:34;98536.06;;;19.14;66.80
72802;BME280;61891;55.818;37.084;2023-07-29T06:49:00;98539.56;;;19.15;66.14
72802;BME280;61891;55.818;37.084;2023-07-29T06:51:26;98561.06;;;19.31;66.64
72802;BME280;61891;55.818;37.084;2023-07-29T06:53:52;98560.44;;;19.41;65.92
72802;BME280;61891;55.818;37.084;2023-07-29T06:56:17;98566.22;;;19.50;65.47
72802;BME280;61891;55.818;37.084;2023-07-29T06:58:43;98571.22;;;19.58;65.38
72802;BME280;61891;55.818;37.084;2023-07-29T07:01:09;98560.47;;;19.58;65.37
72802;BME280;61891;55.818;37.084;2023-07-29T07:03:34;98564.69;;;19.71;64.97
72802;BME280;61891;55.818;37.084;2023-07-29T07:06:00;98574.78;;;19.80;64.25
72802;BME280;61891;55.818;37.084;2023-07-29T07:08:26;98574.88;;;19.85;64.51
72802;BME280;61891;55.818;37.084;2023-07-29T07:10:51;98579.50;;;19.90;64.57
72802;BME280;61891;55.818;37.084;2023-07-29T07:13:17;98586.59;;;19.96;64.85
72802;BME280;61891;55.818;37.084;2023-07-29T07:15:43;98583.16;;;20.01;64.29
72802;BME280;61891;55.818;37.084;2023-07-29T07:18:09;98577.72;;;19.95;64.48
72802;BME280;61891;55.818;37.084;2023-07-29T07:20:35;98579.84;;;19.93;64.59
72802;BME280;61891;55.818;37.084;2023-07-29T07:23:00;98593.34;;;19.99;64.47
72802;BME280;61891;55.818;37.084;2023-07-29T07:25:26;98583.41;;;19.99;64.37
72802;BME280;61891;55.818;37.084;2023-07-29T07:27:52;98585.59;;;20.02;64.10
72802;BME280;61891;55.818;37.084;2023-07-29T07:30:17;98583.72;;;20.03;63.88
72802;BME280;61891;55.818;37.084;2023-07-29T07:32:43;98587.06;;;20.10;63.40
72802;BME280;61891;55.818;37.084;2023-07-29T07:35:10;98586.63;;;20.18;63.53
72802;BME280;61891;55.818;37.084;2023-07-29T07:37:36;98594.69;;;20.35;63.60
72802;BME280;61891;55.818;37.084;2023-07-29T07:40:01;98581.13;;;20.46;63.39
72802;BME280;61891;55.818;37.084;2023-07-29T07:42:29;98574.50;;;20.54;62.88
72802;BME280;61891;55.818;37.084;2023-07-29T07:44:55;98573.81;;;20.64;63.04
72802;BME280;61891;55.818;37.084;2023-07-29T07:47:21;98583.94;;;20.78;62.42
72802;BME280;61891;55.818;37.084;2023-07-29T07:49:47;98581.66;;;20.87;62.31
72802;BME280;61891;55.818;37.084;2023-07-29T07:52:14;98573.00;;;20.85;62.59
72802;BME280;61891;55.818;37.084;2023-07-29T07:54:40;98563.16;;;20.96;61.64
72802;BME280;61891;55.818;37.084;2023-07-29T07:57:06;98567.53;;;21.02;61.57
72802;BME280;61891;55.818;37.084;2023-07-29T07:59:31;98564.28;;;21.00;61.13
72802;BME280;61891;55.818;37.084;2023-07-29T08:01:57;98573.72;;;21.02;61.88
72802;BME280;61891;55.818;37.084;2023-07-29T08:04:23;98568.22;;;20.92;60.38
72802;BME280;61891;55.818;37.084;2023-07-29T08:06:49;98571.88;;;20.81;61.32
72802;BME280;61891;55.818;37.084;2023-07-29T08:09:14;98566.84;;;20.68;61.10
72802;BME280;61891;55.818;37.084;2023-07-29T08:11:40;98564.66;;;20.65;60.85
72802;BME280;61891;55.818;37.084;2023-07-29T08:14:06;98564.09;;;20.63;61.06
72802;BME280;61891;55.818;37.084;2023-07-29T08:16:31;98571.13;;;20.64;60.92
72802;BME280;61891;55.818;37.084;2023-07-29T08:18:57;98564.09;;;20.63;60.67
72802;BME280;61891;55.818;37.084;2023-07-29T08:21:23;98552.69;;;20.55;60.92
72802;BME280;61891;55.818;37.084;2023-07-29T08:23:49;98574.44;;;20.71;61.15
72802;BME280;61891;55.818;37.084;2023-07-29T08:26:14;98569.19;;;20.81;61.30
72802;BME280;61891;55.818;37.084;2023-07-29T08:28:40;98568.22;;;20.92;60.59
72802;BME280;61891;55.818;37.084;2023-07-29T08:31:06;98540.69;;;20.85;60.32
72802;BME280;61891;55.818;37.084;2023-07-29T08:33:33;98576.84;;;21.16;60.39
72802;BME280;61891;55.818;37.084;2023-07-29T08:35:59;98573.16;;;21.22;60.13
72802;BME280;61891;55.818;37.084;2023-07-29T08:38:25;98575.06;;;21.27;59.27
72802;BME280;61891;55.818;37.084;2023-07-29T08:43:39;98565.47;;;21.36;59.38
72802;BME280;61891;55.818;37.084;2023-07-29T08:46:05;98574.50;;;21.51;59.89
72802;BME280;61891;55.818;37.084;2023-07-29T08:48:51;98564.25;;;21.53;58.85
72802;BME280;61891;55.818;37.084;2023-07-29T08:51:17;98566.75;;;21.60;59.38
72802;BME280;61891;55.818;37.084;2023-07-29T08:53:43;98557.88;;;21.65;59.13
72802;BME280;61891;55.818;37.084;2023-07-29T08:56:09;98558.59;;;21.92;57.62
72802;BME280;61891;55.818;37.084;2023-07-29T08:58:35;98554.59;;;22.00;58.31
72802;BME280;61891;55.818;37.084;2023-07-29T09:01:02;98553.41;;;22.17;58.20
72802;BME280;61891;55.818;37.084;2023-07-29T09:03:27;98544.59;;;22.42;57.02
72802;BME280;61891;55.818;37.084;2023-07-29T09:05:54;98536.31;;;22.64;57.78
72802;BME280;61891;55.818;37.084;2023-07-29T09:08:21;98514.97;;;22.68;57.62
72802;BME280;61891;55.818;37.084;2023-07-29T09:10:47;98548.06;;;23.05;57.18
72802;BME280;61891;55.818;37.084;2023-07-29T09:13:14;98553.78;;;23.19;56.41
72802;BME280;61891;55.818;37.084;2023-07-29T09:15:39;98557.28;;;23.25;54.94
72802;BME280;61891;55.818;37.084;2023-07-29T09:18:18;98557.00;;;23.21;55.00
72802;BME280;61891;55.818;37.084;2023-07-29T09:20:49;98538.34;;;23.14;55.42
72802;BME280;61891;55.818;37.084;2023-07-29T09:23:16;98543.50;;;23.16;56.00
72802;BME280;61891;55.818;37.084;2023-07-29T09:25:42;98549.41;;;23.03;55.94
72802;BME280;61891;55.818;37.084;2023-07-29T09:28:11;98562.66;;;22.99;54.01
72802;BME280;61891;55.818;37.084;2023-07-29T09:30:42;98543.91;;;22.72;55.39
72802;BME280;61891;55.818;37.084;2023-07-29T09:33:09;98571.00;;;22.82;55.33
72802;BME280;61891;55.818;37.084;2023-07-29T09:35:36;98548.75;;;22.70;55.12
72802;BME280;61891;55.818;37.084;2023-07-29T09:38:03;98555.81;;;22.76;55.04
72802;BME280;61891;55.818;37.084;2023-07-29T09:40:39;98562.88;;;22.82;55.01
72802;BME280;61891;55.818;37.084;2023-07-29T09:43:08;98562.03;;;22.77;55.90
72802;BME280;61891;55.818;37.084;2023-07-29T09:45:35;98567.38;;;22.67;55.71
72802;BME280;61891;55.818;37.084;2023-07-29T09:48:03;98553.59;;;22.63;55.43
72802;BME280;61891;55.818;37.084;2023-07-29T09:50:30;98544.13;;;22.61;55.41
72802;BME280;61891;55.818;37.084;2023-07-29T09:52:57;98566.28;;;22.63;55.52
72802;BME280;61891;55.818;37.084;2023-07-29T09:55:26;98559.81;;;22.59;55.12
72802;BME280;61891;55.818;37.084;2023-07-29T09:57:56;98544.63;;;22.47;55.02
72802;BME280;61891;55.818;37.084;2023-07-29T10:00:23;98549.47;;;22.45;55.15
72802;BME280;61891;55.818;37.084;2023-07-29T10:02:49;98566.81;;;22.55;54.13
72802;BME280;61891;55.818;37.084;2023-07-29T10:05:15;98568.41;;;22.50;55.25
72802;BME280;61891;55.818;37.084;2023-07-29T10:07:41;98557.31;;;22.47;55.37
72802;BME280;61891;55.818;37.084;2023-07-29T10:10:09;98574.34;;;22.52;54.13
72802;BME280;61891;55.818;37.084;2023-07-29T10:12:35;98572.72;;;22.46;54.95
72802;BME280;61891;55.818;37.084;2023-07-29T10:15:02;98577.34;;;22.56;54.01
72802;BME280;61891;55.818;37.084;2023-07-29T10:17:30;98564.88;;;22.45;54.97
72802;BME280;61891;55.818;37.084;2023-07-29T10:19:56;98587.28;;;22.45;54.75
72802;BME280;61891;55.818;37.084;2023-07-29T10:22:28;98542.28;;;22.09;54.62
72802;BME280;61891;55.818;37.084;2023-07-29T10:25:03;98532.75;;;22.01;54.77
72802;BME280;61891;55.818;37.084;2023-07-29T10:27:38;98536.03;;;22.03;55.29
72802;BME280;61891;55.818;37.084;2023-07-29T10:30:08;98497.78;;;21.74;54.83
72802;BME280;61891;55.818;37.084;2023-07-29T10:32:36;98572.03;;;22.19;54.76
72802;BME280;61891;55.818;37.084;2023-07-29T10:35:02;98553.63;;;22.11;55.53
72802;BME280;61891;55.818;37.084;2023-07-29T10:37:29;98550.41;;;22.14;55.21
72802;BME280;61891;55.818;37.084;2023-07-29T10:39:55;98546.91;;;22.18;54.84
72802;BME280;61891;55.818;37.084;2023-07-29T10:42:21;98555.31;;;22.22;53.93
72802;BME280;61891;55.818;37.084;2023-07-29T10:44:52;98557.97;;;22.17;54.02
72802;BME280;61891;55.818;37.084;2023-07-29T10:47:26;98543.34;;;22.08;54.80
72802;BME280;61891;55.818;37.084;2023-07-29T10:49:55;98553.66;;;22.16;54.50
72802;BME280;61891;55.818;37.084;2023-07-29T10:55:02;98577.44;;;22.19;54.56
72802;BME280;61891;55.818;37.084;2023-07-29T10:57:35;98551.63;;;21.96;54.62
72802;BME280;61891;55.818;37.084;2023-07-29T11:00:02;98581.16;;;22.08;54.99
72802;BME280;61891;55.818;37.084;2023-07-29T11:02:36;98584.03;;;22.01;54.47
72802;BME280;61891;55.818;37.084;2023-07-29T11:05:27;98577.53;;;21.97;53.96
72802;BME280;61891;55.818;37.084;2023-07-29T11:07:52;98578.91;;;22.00;54.32
72802;BME280;61891;55.818;37.084;2023-07-29T11:10:17;98578.91;;;22.00;54.30
72802;BME280;61891;55.818;37.084;2023-07-29T11:12:47;98576.72;;;21.97;54.12
72802;BME280;61891;55.818;37.084;2023-07-29T11:15:28;98573.44;;;21.90;53.63
72802;BME280;61891;55.818;37.084;2023-07-29T11:17:56;98550.72;;;21.80;54.24
72802;BME280;61891;55.818;37.084;2023-07-29T11:20:24;98592.94;;;22.02;54.14
72802;BME280;61891;55.818;37.084;2023-07-29T11:22:51;98588.88;;;21.99;54.12
72802;BME280;61891;55.818;37.084;2023-07-29T11:25:18;98588.06;;;21.99;54.22
72802;BME280;61891;55.818;37.084;2023-07-29T11:27:46;98586.44;;;21.98;53.68
72802;BME280;61891;55.818;37.084;2023-07-29T11:30:13;98583.97;;;21.91;53.61
72802;BME280;61891;55.818;37.084;2023-07-29T11:32:41;98588.81;;;21.89;53.61
72802;BME280;61891;55.818;37.084;2023-07-29T11:35:13;98587.72;;;21.85;54.44
72802;BME280;61891;55.818;37.084;2023-07-29T11:37:43;98587.75;;;21.90;54.01
72802;BME280;61891;55.818;37.084;2023-07-29T11:40:09;98586.94;;;21.90;53.58
72802;BME280;61891;55.818;37.084;2023-07-29T11:42:38;98574.47;;;21.83;53.73
72802;BME280;61891;55.818;37.084;2023-07-29T11:45:04;98600.00;;;22.03;53.35
72802;BME280;61891;55.818;37.084;2023-07-29T11:47:34;98580.53;;;22.01;54.08
72802;BME280;61891;55.818;37.084;2023-07-29T11:50:07;98598.69;;;22.10;53.68
72802;BME280;61891;55.818;37.084;2023-07-29T11:52:41;98585.47;;;22.09;53.74
72802;BME280;61891;55.818;37.084;2023-07-29T11:55:08;98594.19;;;22.21;53.45
72802;BME280;61891;55.818;37.084;2023-07-29T11:57:36;98561.09;;;21.99;53.42
72802;BME280;61891;55.818;37.084;2023-07-29T12:00:03;98587.97;;;22.21;53.52
72802;BME280;61891;55.818;37.084;2023-07-29T12:02:36;98575.50;;;22.14;53.66
72802;BME280;61891;55.818;37.084;2023-07-29T12:05:04;98606.69;;;22.37;53.27
72802;BME280;61891;55.818;37.084;2023-07-29T12:07:31;98608.94;;;22.50;53.02
72802;BME280;61891;55.818;37.084;2023-07-29T12:09:59;98611.97;;;22.64;52.73
72802;BME280;61891;55.818;37.084;2023-07-29T12:12:25;98622.59;;;22.81;52.55
72802;BME280;61891;55.818;37.084;2023-07-29T12:14:53;98613.75;;;23.01;51.76
72802;BME280;61891;55.818;37.084;2023-07-29T12:17:19;98609.47;;;23.20;52.05
72802;BME280;61891;55.818;37.084;2023-07-29T12:19:45;98608.69;;;23.30;50.96
72802;BME280;61891;55.818;37.084;2023-07-29T12:22:11;98581.34;;;23.21;51.74
72802;BME280;61891;55.818;37.084;2023-07-29T12:24:37;98604.63;;;23.37;50.29
72802;BME280;61891;55.818;37.084;2023-07-29T12:27:04;98603.28;;;23.35;51.67
72802;BME280;61891;55.818;37.084;2023-07-29T12:29:30;98600.03;;;23.28;51.63
72802;BME280;61891;55.818;37.084;2023-07-29T12:31:57;98597.03;;;23.19;50.85
72802;BME280;61891;55.818;37.084;2023-07-29T12:34:25;98584.84;;;23.06;52.04
72802;BME280;61891;55.818;37.084;2023-07-29T12:36:51;98591.84;;;22.97;52.23
72802;BME280;61891;55.818;37.084;2023-07-29T12:39:23;98515.69;;;22.38;52.29
72802;BME280;61891;55.818;37.084;2023-07-29T12:41:50;98583.06;;;22.70;52.28
72802;BME280;61891;55.818;37.084;2023-07-29T12:44:17;98583.88;;;22.70;52.42
72802;BME280;61891;55.818;37.084;2023-07-29T12:46:43;98592.53;;;22.67;52.27
72802;BME280;61891;55.818;37.084;2023-07-29T12:49:10;98592.78;;;22.66;52.35
72802;BME280;61891;55.818;37.084;2023-07-29T12:51:35;98594.13;;;22.63;51.74
72802;BME280;61891;55.818;37.084;2023-07-29T12:54:02;98578.69;;;22.54;52.59
72802;BME280;61891;55.818;37.084;2023-07-29T12:56:28;98597.63;;;22.64;52.58
72802;BME280;61891;55.818;37.084;2023-07-29T12:58:56;98596.03;;;22.68;52.73
72802;BME280;61891;55.818;37.084;2023-07-29T13:01:23;98591.47;;;22.73;52.76